Airfield :
LOGIN :

Register | Disclaimer

   EN    FR    IT 

 










Legend :    VFR   Marginal VFR   IFR   Intensive IFR   Very Intensive IFR
Visi :
Ceiling :
>= 8 km
>= 3000ft
5 to 8 km
1000 to 3000 ft
1500m to 5 km
500 to 1000 ft
800 to 1500m
200 to 500 ft
< 800m
< 200 ft
Symbols :   Thunderstorms  Fog  Heavy snow  Heavy precipitations  Wind > 20 kt
SIGMETs :     Misc.  Thunderstorms  Icing  Turbulence  Mountain Waves  Volcanic Ashes







- Airport Elevation : 526 ft
- IATA code : LTN
- Download approach charts


EGGW - London Luton

CURRENT METAR :
  • 121550Z AUTO 14009KT 9999 NCD 04/M01 Q1020

EXPIRED METARs :
  • 121520Z AUTO 14011KT 9999 NCD 05/M01 Q1020
  • 121450Z AUTO 12009KT 9999 FEW030 05/01 Q1020
  • 121420Z AUTO 13010KT 9999 SCT033 05/01 Q1021
  • 121350Z AUTO 14008KT 9999 BKN031 05/01 Q1021
  • 121320Z AUTO 14010KT 9999 BKN032 05/02 Q1021

TAF TAF EGGW
Valid from the 12 at 12:00 until the 13 at 12:00 UTC


121055Z 1212/1312 13012KT 9999 BKN012
BECMG 1212/1215 FEW015 SCT035
TEMPO 1221/1310 8000 BKN010
PROB30
TEMPO 1302/1309 BKN005
ATIS : +44 1582 395 204
No reported NOTAMs for that airfield.



MET'MAP, your aeronautical weather chart ! - Copyright ORBIFLY December 2007 - Disclaimer

ORBIFLY MET'MAP TEAM :

Programming & Development : Alexandra Zaïnal
Concept & Development : Baudouin d'Aumeries
Co-Development & Prog : Marc-Olivier Méhu
Technical & hardware support : Manuel Goepfert

Contact : metmap@orbifly.com




SOURCES & CREDITS :

   NOAA